createdAt,value
2023-03-02T00:04:33.736Z,27.50
2023-03-02T00:09:38.131Z,28.60
2023-03-02T00:14:43.141Z,32.10
2023-03-02T00:19:47.749Z,38.20
2023-03-02T00:34:54.634Z,31.90
2023-03-02T00:40:02.360Z,39.70
2023-03-02T00:45:11.138Z,39.20
2023-03-02T00:50:18.756Z,37.90
2023-03-02T00:55:26.658Z,36.90
2023-03-02T01:00:35.825Z,38.70
2023-03-02T01:05:43.344Z,37.30
2023-03-02T01:10:52.163Z,38.70
2023-03-02T01:16:08.243Z,41.80
2023-03-02T01:21:17.399Z,42.20
2023-03-02T01:26:24.877Z,38.00
2023-03-02T01:31:32.887Z,37.10
2023-03-02T01:36:40.309Z,37.00
2023-03-02T01:41:48.156Z,36.50
2023-03-02T01:46:55.627Z,37.10
2023-03-02T01:52:05.503Z,35.50
2023-03-02T01:57:13.761Z,41.90
2023-03-02T02:02:21.266Z,39.80
2023-03-02T02:07:29.853Z,39.70
2023-03-02T02:12:37.913Z,38.30
2023-03-02T02:17:45.648Z,35.80
2023-03-02T02:23:05.282Z,35.90
2023-03-02T02:28:21.301Z,31.90
2023-03-02T02:33:29.838Z,33.40
2023-03-02T02:38:38.853Z,33.40
2023-03-02T02:43:46.251Z,34.00
2023-03-02T02:48:53.894Z,39.50
2023-03-02T02:54:04.497Z,34.80
2023-03-02T02:59:19.222Z,36.90
2023-03-02T03:04:30.178Z,35.70
2023-03-02T03:09:37.885Z,34.80
2023-03-02T03:14:45.934Z,34.00
2023-03-02T03:19:53.497Z,30.70
2023-03-02T03:28:32.495Z,38.50
2023-03-02T03:33:40.217Z,38.10
2023-03-02T03:38:48.970Z,36.20
2023-03-02T03:43:56.968Z,33.00
2023-03-02T03:49:05.032Z,32.90
2023-03-02T03:54:13.226Z,33.70
2023-03-02T03:59:23.315Z,26.50
2023-03-02T04:04:34.487Z,32.50
2023-03-02T04:09:42.766Z,29.80
2023-03-02T04:14:50.989Z,32.40
2023-03-02T04:19:59.873Z,32.50
2023-03-02T04:25:10.563Z,21.00
2023-03-02T04:30:21.013Z,29.70
2023-03-02T04:35:29.324Z,31.20
2023-03-02T04:40:37.156Z,32.60
2023-03-02T04:45:44.954Z,30.50
2023-03-02T04:50:52.880Z,30.70
2023-03-02T04:56:02.597Z,31.60
2023-03-02T05:01:10.887Z,33.80
2023-03-02T05:06:18.795Z,31.00
2023-03-02T05:11:26.298Z,33.60
2023-03-02T05:16:35.949Z,30.20
2023-03-02T05:21:44.606Z,30.20
2023-03-02T05:26:54.266Z,30.00
2023-03-02T05:32:02.282Z,31.60
2023-03-02T05:37:09.878Z,31.20
2023-03-02T05:42:18.253Z,33.20
2023-03-02T05:47:25.644Z,29.90
2023-03-02T05:52:34.449Z,31.20
2023-03-02T05:57:42.544Z,29.80
2023-03-02T06:02:50.407Z,29.10
2023-03-02T06:07:58.638Z,27.30
2023-03-02T06:13:06.773Z,28.40
2023-03-02T06:18:14.856Z,30.50
2023-03-02T06:23:22.945Z,29.60
2023-03-02T06:28:32.835Z,36.60
2023-03-02T06:33:43.411Z,33.50
2023-03-02T06:38:51.594Z,34.10
2023-03-02T06:43:59.296Z,31.60
2023-03-02T06:49:07.602Z,31.60
2023-03-02T06:54:16.439Z,29.50
2023-03-02T06:59:24.264Z,21.20
2023-03-02T07:04:31.726Z,30.70
2023-03-02T07:09:39.135Z,32.90
2023-03-02T07:14:46.793Z,30.30
2023-03-02T07:19:54.453Z,33.10
2023-03-02T07:29:50.634Z,36.70
2023-03-02T07:34:55.023Z,36.50
2023-03-02T07:40:00.825Z,34.20
2023-03-02T07:45:07.200Z,20.20
2023-03-02T07:50:13.124Z,33.60
2023-03-02T07:55:17.607Z,34.20
2023-03-02T08:00:23.450Z,32.60
2023-03-02T08:05:28.066Z,27.20
2023-03-02T08:10:34.034Z,26.80
2023-03-02T08:15:38.653Z,23.10
2023-03-02T08:20:42.613Z,26.90
2023-03-02T08:28:38.429Z,29.80
2023-03-02T08:33:47.268Z,29.10
2023-03-02T08:38:55.875Z,22.40
2023-03-02T08:44:04.214Z,23.60
2023-03-02T08:49:11.741Z,25.30
2023-03-02T08:54:19.825Z,27.90
2023-03-02T08:59:28.675Z,27.80
2023-03-02T09:04:37.440Z,22.80
2023-03-02T09:09:44.630Z,27.10
2023-03-02T09:20:00.691Z,21.80
2023-03-02T09:25:09.637Z,18.60
2023-03-02T09:30:19.242Z,22.50
2023-03-02T09:35:27.448Z,23.90
2023-03-02T09:40:41.988Z,20.30
2023-03-02T09:46:14.205Z,17.30
2023-03-02T09:51:32.839Z,18.00
2023-03-02T09:56:45.282Z,18.00
2023-03-02T10:02:01.613Z,20.40
2023-03-02T10:07:16.050Z,20.60
2023-03-02T10:12:45.526Z,21.60
2023-03-02T10:18:02.554Z,23.30
2023-03-02T10:23:25.258Z,19.60
2023-03-02T10:28:39.634Z,18.70
2023-03-02T10:33:47.288Z,18.90
2023-03-02T10:38:56.190Z,19.80
2023-03-02T10:44:07.797Z,19.60
2023-03-02T10:49:30.872Z,19.90
2023-03-02T10:54:38.548Z,19.40
2023-03-02T10:59:48.474Z,20.70
2023-03-02T11:04:59.389Z,18.10
2023-03-02T11:10:19.637Z,21.00
2023-03-02T11:15:30.209Z,19.90
2023-03-02T11:20:41.746Z,21.90
2023-03-02T11:25:53.669Z,20.50
2023-03-02T11:31:04.485Z,19.30
2023-03-02T11:36:17.495Z,20.30
2023-03-02T11:41:31.360Z,16.20
2023-03-02T11:46:39.447Z,17.60
2023-03-02T11:51:58.947Z,18.00
2023-03-02T11:57:07.178Z,17.10
2023-03-02T12:02:16.766Z,15.90
2023-03-02T12:07:28.290Z,11.90
2023-03-02T12:12:49.910Z,13.20
2023-03-02T12:17:58.218Z,13.30
2023-03-02T12:23:24.234Z,11.60
2023-03-02T12:28:36.219Z,11.40
2023-03-02T12:33:50.081Z,12.40
2023-03-02T12:39:11.738Z,10.50
2023-03-02T12:44:39.122Z,9.30
2023-03-02T12:55:07.031Z,12.10
2023-03-02T13:00:21.694Z,13.40
2023-03-02T13:05:33.633Z,14.00
2023-03-02T13:10:45.529Z,13.60
2023-03-02T13:15:56.680Z,13.60
2023-03-02T13:21:06.219Z,13.40
2023-03-02T13:26:29.285Z,13.20
2023-03-02T13:31:38.416Z,11.70
2023-03-02T13:36:45.898Z,14.20
2023-03-02T13:41:58.997Z,13.30
2023-03-02T13:47:06.870Z,13.00
2023-03-02T13:52:23.688Z,13.80
2023-03-02T13:57:34.150Z,14.00
2023-03-02T14:02:42.852Z,12.90
2023-03-02T14:07:50.547Z,14.40
2023-03-02T14:13:03.573Z,12.00
2023-03-02T14:18:25.221Z,10.70
2023-03-02T14:23:32.838Z,11.40
2023-03-02T14:28:40.657Z,10.60
2023-03-02T14:33:48.545Z,9.20
2023-03-02T14:38:58.708Z,9.20
2023-03-02T14:44:07.044Z,10.60
2023-03-02T14:49:14.543Z,12.20
2023-03-02T14:54:23.382Z,11.70
2023-03-02T14:59:31.192Z,12.50
2023-03-02T15:04:38.722Z,11.90
2023-03-02T15:09:46.808Z,11.10
2023-03-02T15:14:54.114Z,11.30
2023-03-02T15:20:01.738Z,11.00
2023-03-02T15:25:10.368Z,10.20
2023-03-02T15:30:19.259Z,14.10
2023-03-02T15:35:27.430Z,11.60
2023-03-02T15:40:35.523Z,10.80
2023-03-02T15:45:47.845Z,12.30
2023-03-02T15:51:01.720Z,12.90
2023-03-02T15:56:11.394Z,14.30
2023-03-02T16:01:19.338Z,13.10
2023-03-02T16:06:27.969Z,13.60
2023-03-02T16:11:35.959Z,12.40
2023-03-02T16:16:43.638Z,12.80
2023-03-02T16:21:51.322Z,13.50
2023-03-02T16:26:59.058Z,11.00
2023-03-02T16:32:09.213Z,13.60
2023-03-02T16:37:16.847Z,13.70
2023-03-02T16:42:24.559Z,13.70
2023-03-02T16:47:32.575Z,12.70
2023-03-02T16:52:40.335Z,12.50
2023-03-02T16:57:48.253Z,12.20
2023-03-02T17:02:56.118Z,11.40
2023-03-02T17:08:05.451Z,11.10
2023-03-02T17:13:15.710Z,10.90
2023-03-02T17:18:23.116Z,13.20
2023-03-02T17:23:31.634Z,12.30
2023-03-02T17:28:39.492Z,11.30
2023-03-02T17:33:47.075Z,11.60
2023-03-02T17:38:54.811Z,12.30
2023-03-02T17:44:02.576Z,12.80
2023-03-02T17:49:10.346Z,11.70
2023-03-02T17:54:18.212Z,10.60
2023-03-02T17:59:25.566Z,9.30
2023-03-02T18:04:33.211Z,11.80
2023-03-02T18:09:40.675Z,12.90
2023-03-02T18:14:48.290Z,15.20
2023-03-02T18:19:56.402Z,14.20
2023-03-02T18:25:03.995Z,16.20
2023-03-02T18:30:14.230Z,20.20
2023-03-02T18:35:22.222Z,50.30
2023-03-02T18:40:30.699Z,23.00
2023-03-02T18:45:38.608Z,27.90
2023-03-02T18:50:47.182Z,26.50
2023-03-02T18:55:57.285Z,21.80
2023-03-02T19:01:05.722Z,27.20
2023-03-02T19:06:13.880Z,26.80
2023-03-02T19:11:21.334Z,24.70
2023-03-02T19:16:29.693Z,25.30
2023-03-02T19:21:37.257Z,24.00
2023-03-02T19:26:45.016Z,24.20
2023-03-02T19:31:52.544Z,23.10
2023-03-02T19:37:00.367Z,20.20
2023-03-02T19:42:08.496Z,23.80
2023-03-02T19:47:15.969Z,26.50
2023-03-02T19:52:23.730Z,26.90
2023-03-02T19:57:32.859Z,25.60
2023-03-02T20:02:41.240Z,21.40
2023-03-02T20:07:48.650Z,25.60
2023-03-02T20:12:56.125Z,24.50
2023-03-02T20:18:04.036Z,22.20
2023-03-02T20:23:11.534Z,22.70
2023-03-02T20:28:22.758Z,20.70
2023-03-02T20:33:33.435Z,23.40
2023-03-02T20:38:47.044Z,23.20
2023-03-02T20:43:55.029Z,25.40
2023-03-02T20:49:02.741Z,26.70
2023-03-02T20:54:11.015Z,26.60
2023-03-02T21:09:08.936Z,27.90
2023-03-02T21:14:17.053Z,28.40
2023-03-02T21:19:25.962Z,21.70
2023-03-02T21:24:34.357Z,21.40
2023-03-02T21:29:41.998Z,26.60
2023-03-02T21:34:49.279Z,30.90
2023-03-02T21:45:03.441Z,28.60
2023-03-02T21:50:15.502Z,30.20
2023-03-02T21:55:24.027Z,28.50
2023-03-02T22:00:34.587Z,28.10
2023-03-02T22:05:42.481Z,28.50
2023-03-02T22:10:51.855Z,28.30
2023-03-02T22:16:07.880Z,25.30
2023-03-02T22:21:34.832Z,26.10
2023-03-02T22:26:45.064Z,26.20
2023-03-02T22:31:54.618Z,23.70
2023-03-02T22:37:11.088Z,26.60
2023-03-02T22:42:20.518Z,25.90
2023-03-02T22:47:28.818Z,23.70
2023-03-02T22:52:43.233Z,28.30
2023-03-02T22:57:50.702Z,29.00
2023-03-02T23:02:59.179Z,22.80
2023-03-02T23:08:21.881Z,27.10
2023-03-02T23:13:39.326Z,27.80
2023-03-02T23:23:53.882Z,26.60
2023-03-02T23:29:01.752Z,32.80
2023-03-02T23:34:09.544Z,32.80
2023-03-02T23:39:17.858Z,32.00
2023-03-02T23:44:25.695Z,29.30
2023-03-02T23:49:33.523Z,30.30
2023-03-02T23:54:42.518Z,29.10
2023-03-02T23:59:50.026Z,26.80
